Time;durP1;ratioP1;P1;durP2;ratioP2;P2;SDS_P1;SDS_P2;PMS_P1;PMS_P2;Temp;Humidity;BMP_temperature;BMP_pressure;BME280_temperature;BME280_humidity;BME280_pressure;Samples;Min_cycle;Max_cycle;Signal;HPM_P1;HPM_P2
2021/07/10 00:00:53;;;;;;;13.38;11.45;;;19.80;79.60;;;;;;5015919;28;20128;-91
2021/07/10 00:03:19;;;;;;;13.32;10.85;;;19.70;79.60;;;;;;5028656;28;20101;-91
2021/07/10 00:05:45;;;;;;;13.40;10.85;;;19.80;79.50;;;;;;5031117;28;20140;-92
2021/07/10 00:08:10;;;;;;;14.65;11.40;;;19.70;79.70;;;;;;5031644;28;20046;-91
2021/07/10 00:10:36;;;;;;;14.07;11.40;;;19.70;79.70;;;;;;5031958;28;20520;-91
2021/07/10 00:13:02;;;;;;;13.60;11.55;;;19.70;79.40;;;;;;5030553;28;20046;-92
2021/07/10 00:15:29;;;;;;;15.57;12.52;;;19.70;79.70;;;;;;5016381;28;20046;-92
2021/07/10 00:17:54;;;;;;;17.30;12.50;;;19.60;79.80;;;;;;5015799;28;20482;-92
2021/07/10 00:20:21;;;;;;;15.82;12.57;;;19.60;79.70;;;;;;5015582;28;20060;-92
2021/07/10 00:22:47;;;;;;;17.48;13.00;;;19.60;79.70;;;;;;5015128;28;20073;-92
2021/07/10 00:25:15;;;;;;;16.92;13.50;;;19.60;79.60;;;;;;5015595;28;20045;-92
2021/07/10 00:27:42;;;;;;;16.85;12.57;;;19.60;80.10;;;;;;5014884;28;20393;-92
2021/07/10 00:30:09;;;;;;;17.38;14.05;;;19.50;80.20;;;;;;5014715;28;20472;-92
2021/07/10 00:32:35;;;;;;;16.95;13.98;;;19.50;80.20;;;;;;5015682;28;20125;-92
2021/07/10 00:35:01;;;;;;;19.70;14.50;;;19.50;80.00;;;;;;5015830;28;20050;-91
2021/07/10 00:37:27;;;;;;;17.05;14.40;;;19.50;80.10;;;;;;5016064;28;20053;-92
2021/07/10 00:39:53;;;;;;;17.77;14.80;;;19.40;80.10;;;;;;5015508;28;20062;-92
2021/07/10 00:42:21;;;;;;;18.25;14.77;;;19.40;80.20;;;;;;5015408;28;20050;-92
2021/07/10 00:44:48;;;;;;;18.48;15.02;;;19.40;80.30;;;;;;5013839;28;20082;-92
2021/07/10 00:47:14;;;;;;;20.23;15.75;;;19.40;80.40;;;;;;5015343;28;20413;-92
2021/07/10 00:49:39;;;;;;;19.30;15.55;;;19.40;80.70;;;;;;5014540;28;20050;-91
2021/07/10 00:52:05;;;;;;;19.10;16.05;;;19.30;80.70;;;;;;5014344;28;20509;-91
2021/07/10 00:54:32;;;;;;;23.40;16.67;;;19.30;80.90;;;;;;5015518;28;20057;-91
2021/07/10 00:57:01;;;;;;;21.95;15.93;;;19.30;80.80;;;;;;5014800;28;20049;-91
2021/07/10 00:59:28;;;;;;;20.48;16.23;;;19.30;80.90;;;;;;5015173;28;20054;-92
2021/07/10 01:01:54;;;;;;;20.17;15.88;;;19.30;80.80;;;;;;5014875;28;20077;-91
2021/07/10 01:04:21;;;;;;;20.88;16.92;;;19.20;80.60;;;;;;5014644;28;20417;-92
2021/07/10 01:06:47;;;;;;;21.33;18.02;;;19.20;80.50;;;;;;5014578;28;20417;-92
2021/07/10 01:09:17;;;;;;;20.73;17.38;;;19.10;80.60;;;;;;5014735;28;20046;-90
2021/07/10 01:11:43;;;;;;;19.13;16.85;;;19.10;80.70;;;;;;5015128;28;20132;-91
2021/07/10 01:14:09;;;;;;;20.17;16.65;;;19.10;80.90;;;;;;5014783;28;20101;-90
2021/07/10 01:16:36;;;;;;;20.85;17.27;;;19.10;81.00;;;;;;5014623;28;20046;-91
2021/07/10 01:19:04;;;;;;;19.00;16.85;;;19.00;80.80;;;;;;5014307;28;20096;-90
2021/07/10 01:21:30;;;;;;;22.13;17.48;;;19.00;80.90;;;;;;5014339;28;20100;-91
2021/07/10 01:23:55;;;;;;;24.33;17.65;;;18.90;81.20;;;;;;5014483;28;20049;-90
2021/07/10 01:26:21;;;;;;;23.00;17.70;;;18.90;81.20;;;;;;5014047;28;20138;-91
2021/07/10 01:28:47;;;;;;;20.02;16.92;;;18.90;81.30;;;;;;5013753;28;20054;-90
2021/07/10 01:31:15;;;;;;;19.98;17.42;;;18.80;81.50;;;;;;5014704;28;20457;-90
2021/07/10 01:33:41;;;;;;;20.40;16.65;;;18.80;81.30;;;;;;5012912;28;20487;-90
2021/07/10 01:36:07;;;;;;;22.02;17.25;;;18.80;81.40;;;;;;5014917;28;20141;-90
2021/07/10 01:38:33;;;;;;;22.67;18.55;;;18.70;81.70;;;;;;5014651;28;20085;-90
2021/07/10 01:40:59;;;;;;;19.20;16.52;;;18.70;82.20;;;;;;5013262;28;20107;-91
2021/07/10 01:43:25;;;;;;;22.10;17.00;;;18.60;82.30;;;;;;5014011;28;20045;-90
2021/07/10 01:45:51;;;;;;;20.15;17.08;;;18.60;82.20;;;;;;5012828;28;20144;-90
2021/07/10 01:48:17;;;;;;;21.77;17.55;;;18.60;82.30;;;;;;5013873;28;20054;-90
2021/07/10 01:50:44;;;;;;;24.00;17.10;;;18.60;83.00;;;;;;5013335;28;20505;-90
2021/07/10 01:53:12;;;;;;;21.60;17.05;;;18.50;82.50;;;;;;5012810;28;20058;-90
2021/07/10 01:55:38;;;;;;;22.38;17.13;;;18.50;82.50;;;;;;5014021;28;20137;-90
2021/07/10 01:58:03;;;;;;;22.02;16.95;;;18.40;82.30;;;;;;5013724;28;20088;-90
2021/07/10 02:00:39;;;;;;;21.98;17.08;;;18.40;82.20;;;;;;5014121;28;20105;-90
2021/07/10 02:03:05;;;;;;;20.38;16.70;;;18.40;82.00;;;;;;5013564;28;20494;-90
2021/07/10 02:05:31;;;;;;;22.35;18.30;;;18.30;82.20;;;;;;5014351;28;20053;-90
2021/07/10 02:07:59;;;;;;;21.63;17.50;;;18.30;82.30;;;;;;5013493;28;20109;-90
2021/07/10 02:10:27;;;;;;;18.65;16.17;;;18.30;82.50;;;;;;5014163;28;20134;-90
2021/07/10 02:13:06;;;;;;;19.60;16.83;;;18.20;82.60;;;;;;5013672;28;20045;-90
2021/07/10 02:15:32;;;;;;;20.88;16.92;;;18.20;82.50;;;;;;5013631;28;20046;-90
2021/07/10 02:17:58;;;;;;;20.02;16.95;;;18.10;82.60;;;;;;5013969;28;20056;-91
2021/07/10 02:20:26;;;;;;;22.08;17.50;;;18.10;82.50;;;;;;5015587;28;20046;-90
2021/07/10 02:22:53;;;;;;;21.30;16.80;;;18.10;82.80;;;;;;5014381;28;20053;-90
2021/07/10 02:25:21;;;;;;;20.30;16.30;;;18.10;82.80;;;;;;5014817;28;20050;-90
2021/07/10 02:27:48;;;;;;;18.83;14.75;;;18.00;82.90;;;;;;5015896;28;20057;-90
2021/07/10 02:30:16;;;;;;;17.20;14.55;;;17.90;83.00;;;;;;5016471;28;20222;-90
2021/07/10 02:32:44;;;;;;;15.98;14.05;;;18.00;82.90;;;;;;5017532;28;20050;-89
2021/07/10 02:35:11;;;;;;;16.05;12.93;;;17.90;83.00;;;;;;5023152;28;20157;-90
2021/07/10 02:37:38;;;;;;;14.77;12.13;;;17.80;82.40;;;;;;5017933;28;20057;-89
2021/07/10 02:40:07;;;;;;;15.98;12.88;;;17.80;82.70;;;;;;5015945;28;20054;-89
2021/07/10 02:42:33;;;;;;;14.93;12.32;;;17.80;83.00;;;;;;5016063;28;20054;-90
2021/07/10 02:44:59;;;;;;;16.10;12.75;;;17.70;83.00;;;;;;5015621;28;20054;-90
2021/07/10 02:47:25;;;;;;;15.20;12.18;;;17.70;83.40;;;;;;5013282;28;20116;-90
2021/07/10 02:49:51;;;;;;;15.18;12.10;;;17.70;83.00;;;;;;5013838;28;20069;-91
2021/07/10 02:52:17;;;;;;;17.90;12.85;;;17.70;83.30;;;;;;5017619;28;20054;-90
2021/07/10 02:54:42;;;;;;;14.48;12.32;;;17.60;83.20;;;;;;5018145;28;20470;-90
2021/07/10 02:57:08;;;;;;;14.75;11.93;;;17.60;83.40;;;;;;5016191;28;20046;-90
2021/07/10 02:59:34;;;;;;;13.85;11.43;;;17.60;83.00;;;;;;5017011;28;20042;-89
2021/07/10 03:01:59;;;;;;;15.68;12.60;;;17.50;83.40;;;;;;5016624;28;20122;-90
2021/07/10 03:04:25;;;;;;;14.00;11.75;;;17.50;83.90;;;;;;5016855;28;20085;-89
2021/07/10 03:06:51;;;;;;;15.80;11.50;;;17.40;83.90;;;;;;5016491;28;20089;-89
2021/07/10 03:09:16;;;;;;;14.57;11.27;;;17.40;84.00;;;;;;5016422;28;20134;-89
2021/07/10 03:11:43;;;;;;;14.02;11.07;;;17.40;84.00;;;;;;5016164;28;20140;-88
2021/07/10 03:14:09;;;;;;;13.05;11.02;;;17.40;84.10;;;;;;5016576;28;20065;-89
2021/07/10 03:16:35;;;;;;;13.43;10.88;;;17.30;84.00;;;;;;5016571;28;20050;-88
2021/07/10 03:19:00;;;;;;;12.75;10.50;;;17.40;84.30;;;;;;5015570;28;20050;-88
2021/07/10 03:21:26;;;;;;;13.93;10.70;;;17.30;84.20;;;;;;5016394;28;20120;-88
2021/07/10 03:23:52;;;;;;;14.15;10.35;;;17.30;83.80;;;;;;5016232;28;20045;-87
2021/07/10 03:26:18;;;;;;;12.80;10.43;;;17.20;84.00;;;;;;5015642;28;20152;-87
2021/07/10 03:28:44;;;;;;;13.48;10.60;;;17.20;84.10;;;;;;5015916;28;20533;-89
2021/07/10 03:31:09;;;;;;;12.68;10.13;;;17.20;83.90;;;;;;5016293;28;20077;-87
2021/07/10 03:33:37;;;;;;;13.85;10.48;;;17.20;83.80;;;;;;5015669;28;20064;-89
2021/07/10 03:36:05;;;;;;;13.27;10.30;;;17.20;84.10;;;;;;5015920;28;20052;-88
2021/07/10 03:38:33;;;;;;;13.30;10.68;;;17.20;84.30;;;;;;5015304;28;20123;-88
2021/07/10 03:40:59;;;;;;;13.02;10.93;;;17.10;84.20;;;;;;5015965;28;20493;-89
2021/07/10 03:43:25;;;;;;;12.90;10.45;;;17.10;83.90;;;;;;5016476;28;20100;-88
2021/07/10 03:45:52;;;;;;;13.30;10.00;;;17.10;83.80;;;;;;5015209;28;20045;-88
2021/07/10 03:48:19;;;;;;;12.95;10.07;;;17.10;84.20;;;;;;5016187;28;20049;-89
2021/07/10 03:50:45;;;;;;;12.38;9.77;;;17.10;84.30;;;;;;5015985;28;20096;-89
2021/07/10 03:53:12;;;;;;;14.68;10.77;;;17.10;84.10;;;;;;5015262;28;20057;-88
2021/07/10 03:55:39;;;;;;;14.18;11.40;;;17.00;83.90;;;;;;5016395;28;20129;-89
2021/07/10 03:58:05;;;;;;;13.57;10.73;;;17.00;84.10;;;;;;5015686;28;20529;-88
2021/07/10 04:00:31;;;;;;;14.55;11.50;;;17.00;84.30;;;;;;5015100;28;20409;-89
2021/07/10 04:02:57;;;;;;;15.00;11.48;;;17.00;84.40;;;;;;5014558;28;20046;-89
2021/07/10 04:05:22;;;;;;;14.80;11.20;;;17.00;84.50;;;;;;5015540;28;20068;-88
2021/07/10 04:07:49;;;;;;;14.45;11.02;;;16.90;84.40;;;;;;5017185;28;20108;-90
2021/07/10 04:10:16;;;;;;;14.10;11.50;;;16.90;84.40;;;;;;5017657;28;20129;-89
2021/07/10 04:12:43;;;;;;;14.32;11.02;;;16.90;84.10;;;;;;5015852;28;20042;-87
2021/07/10 04:15:11;;;;;;;14.60;11.38;;;16.90;84.10;;;;;;5015871;28;20049;-89
2021/07/10 04:17:37;;;;;;;14.13;11.48;;;16.90;84.50;;;;;;5016853;28;20449;-89
2021/07/10 04:20:04;;;;;;;13.98;11.43;;;16.80;84.60;;;;;;5017586;28;20054;-89
2021/07/10 04:22:33;;;;;;;13.93;11.18;;;16.90;84.80;;;;;;5015771;28;20046;-89
2021/07/10 04:25:03;;;;;;;14.77;11.20;;;16.80;84.50;;;;;;5015209;28;20465;-89
2021/07/10 04:27:32;;;;;;;15.23;11.05;;;16.80;84.20;;;;;;5017297;28;20050;-89
2021/07/10 04:29:58;;;;;;;14.63;11.30;;;16.80;83.90;;;;;;5020381;28;20486;-88
2021/07/10 04:32:24;;;;;;;13.80;11.27;;;16.80;84.40;;;;;;5017651;28;20489;-89
2021/07/10 04:34:50;;;;;;;14.45;11.55;;;16.80;84.00;;;;;;5016442;28;20050;-88
2021/07/10 04:37:15;;;;;;;13.68;11.10;;;16.80;84.00;;;;;;5014555;28;20042;-89
2021/07/10 04:39:41;;;;;;;15.40;11.48;;;16.70;83.90;;;;;;5014932;28;20058;-89
2021/07/10 04:42:07;;;;;;;15.20;11.88;;;16.80;84.60;;;;;;5014399;28;20132;-89
2021/07/10 04:44:33;;;;;;;13.50;11.27;;;16.70;84.80;;;;;;5015171;28;20058;-89
2021/07/10 04:46:59;;;;;;;16.55;11.48;;;16.70;84.60;;;;;;5014110;28;20469;-88
2021/07/10 04:49:24;;;;;;;13.55;11.40;;;16.70;84.40;;;;;;5014589;28;20050;-89
2021/07/10 04:51:50;;;;;;;14.25;11.65;;;16.70;84.60;;;;;;5015151;28;20074;-88
2021/07/10 04:54:16;;;;;;;13.82;10.60;;;16.70;84.30;;;;;;5014928;28;20050;-88
2021/07/10 04:56:41;;;;;;;13.07;10.68;;;16.70;84.30;;;;;;5015698;28;20077;-88
2021/07/10 04:59:07;;;;;;;14.63;11.60;;;16.70;83.90;;;;;;5014426;28;20076;-88
2021/07/10 05:01:33;;;;;;;13.90;11.30;;;16.70;84.10;;;;;;5008624;28;20486;-87
2021/07/10 05:03:58;;;;;;;14.20;11.63;;;16.70;84.50;;;;;;4997285;28;20046;-89
2021/07/10 05:06:25;;;;;;;15.98;11.98;;;16.70;84.30;;;;;;5005350;28;20050;-88
2021/07/10 05:08:51;;;;;;;14.23;11.60;;;16.80;84.40;;;;;;5004547;28;20133;-88
2021/07/10 05:11:17;;;;;;;16.33;12.55;;;16.70;84.10;;;;;;5015051;28;20123;-89
2021/07/10 05:13:44;;;;;;;15.48;12.07;;;16.80;84.50;;;;;;5015612;28;20045;-90
2021/07/10 05:16:10;;;;;;;16.60;12.48;;;16.80;84.20;;;;;;5015150;28;20052;-89
2021/07/10 05:18:37;;;;;;;14.88;11.75;;;16.80;84.50;;;;;;5012255;28;20050;-89
2021/07/10 05:21:03;;;;;;;16.30;12.43;;;16.80;84.40;;;;;;5004236;28;20057;-89
2021/07/10 05:23:29;;;;;;;16.42;12.50;;;16.80;84.70;;;;;;5014799;28;20045;-89
2021/07/10 05:25:55;;;;;;;15.73;12.32;;;16.80;84.50;;;;;;5017349;28;20050;-90
2021/07/10 05:28:21;;;;;;;14.57;12.20;;;16.80;84.40;;;;;;5015615;28;20092;-90
2021/07/10 05:30:49;;;;;;;17.52;12.75;;;16.80;84.50;;;;;;5015249;28;20512;-90
2021/07/10 05:33:16;;;;;;;16.58;12.00;;;16.90;84.80;;;;;;5016477;28;20045;-90
2021/07/10 05:35:45;;;;;;;15.80;12.52;;;16.90;84.80;;;;;;5015366;28;20058;-90
2021/07/10 05:38:12;;;;;;;16.60;12.52;;;16.90;84.80;;;;;;5005205;28;20054;-89
2021/07/10 05:40:37;;;;;;;15.18;11.82;;;16.90;84.90;;;;;;5011235;28;20129;-90
2021/07/10 05:43:03;;;;;;;16.95;13.05;;;17.00;84.90;;;;;;5014068;28;20070;-89
2021/07/10 05:45:29;;;;;;;16.90;12.20;;;17.00;84.90;;;;;;5012611;28;20092;-89
2021/07/10 05:47:55;;;;;;;15.70;12.68;;;17.00;84.50;;;;;;5012720;28;20054;-89
2021/07/10 05:50:21;;;;;;;17.10;12.95;;;17.10;84.30;;;;;;5008457;28;20549;-90
2021/07/10 05:52:46;;;;;;;15.43;12.77;;;17.10;84.80;;;;;;5003971;28;20055;-90
2021/07/10 05:55:12;;;;;;;17.08;13.45;;;17.10;84.80;;;;;;4994777;28;20070;-90
2021/07/10 05:57:38;;;;;;;15.10;12.45;;;17.10;84.50;;;;;;5010761;28;20046;-91
2021/07/10 06:00:07;;;;;;;16.10;12.93;;;17.10;84.40;;;;;;5013569;28;20046;-88
2021/07/10 06:02:33;;;;;;;19.42;14.02;;;17.20;84.70;;;;;;5013694;28;20054;-89
2021/07/10 06:05:01;;;;;;;25.95;20.92;;;17.20;84.90;;;;;;5013740;28;20046;-90
2021/07/10 06:07:26;;;;;;;24.40;18.58;;;17.20;85.90;;;;;;5013711;28;20129;-91
2021/07/10 06:09:52;;;;;;;20.95;18.17;;;17.30;85.80;;;;;;5013806;28;20131;-89
2021/07/10 06:12:17;;;;;;;19.85;14.00;;;17.30;86.30;;;;;;5014338;28;20125;-90
2021/07/10 06:14:43;;;;;;;21.13;17.08;;;17.30;86.50;;;;;;5012995;28;20192;-90
2021/07/10 06:17:09;;;;;;;20.65;15.73;;;17.40;86.40;;;;;;5014109;28;20046;-86
2021/07/10 06:19:34;;;;;;;21.58;16.80;;;17.40;86.40;;;;;;5014030;28;20070;-84
2021/07/10 06:22:00;;;;;;;23.80;17.48;;;17.40;86.20;;;;;;5011884;28;20069;-83
2021/07/10 06:24:26;;;;;;;26.00;19.20;;;17.50;86.00;;;;;;5013830;28;20050;-83
2021/07/10 06:26:53;;;;;;;21.67;17.65;;;17.50;86.70;;;;;;5016923;28;20096;-91
2021/07/10 06:29:19;;;;;;;22.40;16.42;;;17.50;86.00;;;;;;5017990;28;20121;-90
2021/07/10 06:31:44;;;;;;;23.38;18.67;;;17.60;86.40;;;;;;5017538;28;20073;-87
2021/07/10 06:34:10;;;;;;;23.15;17.83;;;17.60;86.80;;;;;;5016727;28;20149;-89
2021/07/10 06:36:40;;;;;;;22.33;16.92;;;17.70;86.50;;;;;;5017651;28;20050;-89
2021/07/10 06:39:06;;;;;;;19.23;15.90;;;17.70;86.90;;;;;;5017030;28;20050;-90
2021/07/10 06:41:37;;;;;;;18.70;14.55;;;17.80;86.70;;;;;;5016819;28;20050;-90
2021/07/10 06:44:03;;;;;;;19.77;12.88;;;17.90;86.50;;;;;;5017273;28;20057;-89
2021/07/10 06:46:30;;;;;;;20.27;15.25;;;18.00;86.10;;;;;;5019647;28;20063;-88
2021/07/10 06:48:55;;;;;;;18.30;14.98;;;18.00;86.20;;;;;;5016129;28;20046;-89
2021/07/10 06:51:23;;;;;;;18.25;13.55;;;18.00;86.10;;;;;;5016659;28;20129;-91
2021/07/10 06:53:49;;;;;;;17.05;13.30;;;18.20;86.10;;;;;;5017084;28;20089;-90
2021/07/10 06:56:14;;;;;;;18.33;14.52;;;18.30;85.50;;;;;;5017471;28;20054;-92
2021/07/10 06:58:40;;;;;;;17.95;15.57;;;18.30;85.20;;;;;;5017956;28;20050;-92
2021/07/10 07:01:06;;;;;;;19.50;14.73;;;18.40;85.70;;;;;;5016546;28;20049;-89
2021/07/10 07:03:37;;;;;;;21.20;15.43;;;18.40;85.40;;;;;;5015565;28;20041;-91
2021/07/10 07:06:05;;;;;;;22.13;17.75;;;18.50;84.80;;;;;;5025437;28;20532;-92
2021/07/10 07:08:31;;;;;;;23.75;18.23;;;18.50;85.00;;;;;;5032485;28;20062;-92
2021/07/10 07:10:57;;;;;;;21.70;16.65;;;18.60;84.80;;;;;;5038707;28;20492;-92
2021/07/10 07:13:22;;;;;;;24.15;17.50;;;18.60;84.60;;;;;;5035496;28;20046;-90
2021/07/10 07:15:48;;;;;;;25.23;19.20;;;18.70;84.50;;;;;;5022024;28;20045;-92
2021/07/10 07:18:15;;;;;;;23.35;17.80;;;18.70;84.40;;;;;;5015682;28;20042;-89
2021/07/10 07:20:43;;;;;;;29.73;18.20;;;18.80;84.40;;;;;;5015369;28;20058;-88
2021/07/10 07:23:09;;;;;;;25.58;18.85;;;18.80;84.20;;;;;;5014909;28;20047;-88
2021/07/10 07:25:35;;;;;;;29.42;21.60;;;18.80;84.00;;;;;;5024258;28;20667;-88
2021/07/10 07:28:00;;;;;;;24.33;19.77;;;18.80;84.20;;;;;;5024280;28;20157;-86
2021/07/10 07:30:26;;;;;;;27.98;21.30;;;18.90;84.20;;;;;;5016987;28;20121;-87
2021/07/10 07:32:52;;;;;;;33.03;24.25;;;18.90;84.20;;;;;;5015577;28;20133;-87
2021/07/10 07:35:19;;;;;;;30.15;24.98;;;18.90;84.50;;;;;;5015988;28;20077;-87
2021/07/10 07:37:45;;;;;;;29.40;24.40;;;18.90;84.50;;;;;;5013021;28;20493;-90
2021/07/10 07:40:16;;;;;;;31.73;24.83;;;18.90;84.60;;;;;;5014859;28;20080;-88
2021/07/10 07:42:44;;;;;;;30.08;24.50;;;18.90;85.10;;;;;;5015915;28;20482;-87
2021/07/10 07:45:10;;;;;;;29.23;23.23;;;18.90;85.30;;;;;;5034609;28;20057;-89
2021/07/10 07:47:38;;;;;;;30.80;23.10;;;18.90;85.50;;;;;;5037024;28;20049;-90
2021/07/10 07:50:10;;;;;;;30.42;23.92;;;18.90;85.50;;;;;;5036515;28;20133;-93
2021/07/10 07:52:36;;;;;;;32.40;23.73;;;18.90;85.60;;;;;;5025062;28;20097;-87
2021/07/10 07:55:04;;;;;;;30.00;24.73;;;18.90;85.80;;;;;;5021063;28;20485;-87
2021/07/10 07:57:29;;;;;;;30.92;23.45;;;18.90;85.80;;;;;;5020155;28;20101;-88
2021/07/10 07:59:55;;;;;;;33.28;25.17;;;19.00;86.20;;;;;;5022631;28;20045;-87
2021/07/10 08:02:23;;;;;;;30.65;24.00;;;19.00;86.20;;;;;;5024119;28;20504;-87
2021/07/10 08:04:49;;;;;;;33.05;25.58;;;19.00;85.90;;;;;;5022479;28;20553;-86
2021/07/10 08:07:15;;;;;;;33.22;25.17;;;19.10;85.80;;;;;;5023049;28;20579;-88
2021/07/10 08:09:41;;;;;;;34.40;25.10;;;19.10;86.20;;;;;;5022604;28;20042;-87
2021/07/10 08:12:09;;;;;;;29.42;24.27;;;19.20;85.80;;;;;;5024952;28;20461;-88
2021/07/10 08:14:35;;;;;;;32.45;24.95;;;19.30;85.60;;;;;;5023958;28;20052;-88
2021/07/10 08:17:00;;;;;;;31.52;24.42;;;19.40;84.70;;;;;;5023551;28;20050;-88
2021/07/10 08:19:26;;;;;;;27.77;23.30;;;19.40;84.60;;;;;;5022194;28;20069;-88
2021/07/10 08:21:52;;;;;;;29.98;24.52;;;19.50;84.00;;;;;;5023383;28;20049;-88
2021/07/10 08:24:17;;;;;;;31.33;24.05;;;19.50;84.00;;;;;;5023262;28;20042;-88
2021/07/10 08:26:43;;;;;;;30.75;24.23;;;19.60;83.80;;;;;;5021668;28;20053;-89
2021/07/10 08:29:09;;;;;;;31.95;23.90;;;19.60;83.50;;;;;;5026091;28;20077;-87
2021/07/10 08:31:34;;;;;;;29.83;23.40;;;19.70;83.50;;;;;;5034239;28;20053;-88
2021/07/10 08:34:00;;;;;;;33.38;24.17;;;19.70;83.50;;;;;;5035307;28;20049;-93
2021/07/10 08:36:26;;;;;;;28.95;22.98;;;19.80;83.60;;;;;;5032970;28;20056;-90
2021/07/10 08:38:52;;;;;;;30.17;23.58;;;19.90;83.00;;;;;;5019334;28;20481;-86
2021/07/10 08:41:19;;;;;;;31.50;23.17;;;20.00;83.10;;;;;;5030368;28;20064;-91
2021/07/10 08:43:44;;;;;;;30.63;22.85;;;20.10;83.00;;;;;;5028423;28;20045;-91
2021/07/10 08:46:12;;;;;;;24.67;20.75;;;20.10;82.80;;;;;;5034654;28;20072;-90
2021/07/10 08:48:38;;;;;;;27.88;21.30;;;20.20;82.50;;;;;;5033633;28;20110;-90
2021/07/10 08:51:06;;;;;;;25.75;20.70;;;20.30;81.80;;;;;;5018369;28;20441;-89
2021/07/10 08:53:32;;;;;;;26.90;20.77;;;20.40;80.80;;;;;;5015541;28;20164;-90
2021/07/10 08:55:59;;;;;;;26.50;20.10;;;20.40;80.90;;;;;;5018683;28;20053;-91
2021/07/10 08:58:25;;;;;;;30.38;21.27;;;20.50;80.30;;;;;;5011938;28;20054;-92
2021/07/10 09:00:52;;;;;;;26.20;19.60;;;20.50;80.20;;;;;;5016056;28;20057;-89
2021/07/10 09:03:18;;;;;;;28.13;20.10;;;20.60;80.60;;;;;;5014726;28;20157;-89
2021/07/10 09:05:45;;;;;;;29.15;20.40;;;20.60;80.50;;;;;;5028479;28;20051;-90
2021/07/10 09:08:22;;;;;;;26.67;19.10;;;20.60;80.10;;;;;;5034260;28;20140;-90
2021/07/10 09:10:55;;;;;;;26.90;19.40;;;20.60;79.30;;;;;;5033619;28;20520;-90
2021/07/10 09:13:33;;;;;;;24.58;19.23;;;20.50;78.80;;;;;;5034920;28;20046;-88
2021/07/10 09:16:18;;;;;;;23.92;19.33;;;20.40;78.60;;;;;;5033469;28;20519;-89
2021/07/10 09:18:47;;;;;;;28.15;20.48;;;20.20;79.20;;;;;;5034806;28;20053;-92
2021/07/10 09:21:38;;;;;;;26.10;20.63;;;20.10;79.40;;;;;;5036503;28;20111;-91
2021/07/10 09:24:06;;;;;;;25.30;20.20;;;20.00;80.50;;;;;;5035291;28;20057;-92
2021/07/10 09:26:32;;;;;;;27.58;20.83;;;20.00;79.90;;;;;;5016264;28;20076;-92
2021/07/10 09:29:00;;;;;;;27.67;21.15;;;20.00;80.80;;;;;;5016135;28;20070;-92
2021/07/10 09:31:33;;;;;;;29.17;21.35;;;20.00;80.40;;;;;;5014136;28;20054;-88
2021/07/10 09:34:16;;;;;;;30.55;22.25;;;20.00;80.20;;;;;;5014278;28;20176;-89
2021/07/10 09:36:56;;;;;;;27.35;20.85;;;20.10;79.60;;;;;;5014469;28;20058;-90
2021/07/10 09:39:24;;;;;;;31.10;19.42;;;20.00;80.30;;;;;;5014656;28;20053;-89
2021/07/10 09:41:50;;;;;;;24.38;18.23;;;20.10;79.50;;;;;;5015564;28;20053;-91
2021/07/10 09:44:16;;;;;;;27.95;20.70;;;20.00;79.60;;;;;;5014559;28;20556;-89
2021/07/10 09:46:43;;;;;;;23.75;19.13;;;20.00;80.40;;;;;;5015107;28;20475;-88
2021/07/10 09:49:30;;;;;;;24.55;19.13;;;20.10;80.80;;;;;;5015206;28;20422;-90
2021/07/10 09:52:00;;;;;;;23.48;18.73;;;20.10;81.10;;;;;;5013621;28;20137;-90
2021/07/10 09:54:34;;;;;;;25.48;18.73;;;20.20;81.20;;;;;;5014085;28;20053;-91
2021/07/10 09:57:21;;;;;;;21.63;17.30;;;20.30;81.20;;;;;;5012565;28;20117;-92
2021/07/10 09:59:56;;;;;;;24.35;18.30;;;20.40;81.10;;;;;;5019275;28;20077;-90
2021/07/10 10:02:28;;;;;;;24.13;18.25;;;20.50;80.80;;;;;;5014661;28;20050;-90
2021/07/10 10:05:04;;;;;;;24.02;18.75;;;20.60;81.00;;;;;;5016420;28;20125;-90
2021/07/10 10:07:44;;;;;;;24.88;18.85;;;20.70;81.00;;;;;;5024503;28;20057;-92
2021/07/10 10:10:24;;;;;;;23.45;18.20;;;20.80;80.70;;;;;;5020596;28;20052;-90
2021/07/10 10:13:04;;;;;;;21.40;17.65;;;20.90;80.90;;;;;;5020162;28;20124;-91
2021/07/10 10:15:35;;;;;;;20.50;16.40;;;20.90;80.20;;;;;;5025218;28;20504;-91
2021/07/10 10:18:01;;;;;;;21.60;17.30;;;21.00;80.20;;;;;;5020906;28;20054;-92
2021/07/10 10:20:27;;;;;;;22.00;17.42;;;21.10;80.40;;;;;;5027242;28;20050;-96
2021/07/10 10:22:53;;;;;;;22.05;15.75;;;21.20;80.30;;;;;;5023088;28;20077;-95
2021/07/10 10:25:19;;;;;;;20.42;17.15;;;21.20;80.20;;;;;;5027083;28;20038;-95
2021/07/10 10:27:48;;;;;;;21.08;16.27;;;21.30;79.80;;;;;;5025899;28;20048;-95
2021/07/10 10:30:15;;;;;;;19.92;15.52;;;21.40;79.70;;;;;;5034233;28;20125;-95
2021/07/10 10:35:19;;;;;;;21.00;15.40;;;21.50;79.30;;;;;;4989244;26;20055;-92
2021/07/10 10:37:50;;;;;;;21.15;16.13;;;21.60;79.50;;;;;;4991044;28;20039;-95
2021/07/10 10:40:25;;;;;;;19.73;15.07;;;21.70;78.80;;;;;;4986411;28;20071;-96
2021/07/10 10:42:56;;;;;;;21.95;15.48;;;21.70;78.80;;;;;;4985087;28;20066;-95
2021/07/10 10:45:34;;;;;;;18.35;14.43;;;21.80;78.90;;;;;;4981429;28;20055;-95
2021/07/10 10:47:59;;;;;;;19.02;14.63;;;21.90;78.90;;;;;;4980705;28;20138;-94
2021/07/10 10:50:35;;;;;;;19.17;14.32;;;22.00;79.00;;;;;;4981283;28;20106;-95
2021/07/10 10:53:06;;;;;;;19.10;15.30;;;22.00;78.40;;;;;;4981031;28;20055;-96
2021/07/10 10:55:31;;;;;;;19.35;13.98;;;22.10;78.20;;;;;;4985576;28;20074;-94
2021/07/10 10:58:29;;;;;;;17.65;13.57;;;22.20;77.90;;;;;;4982263;28;20054;-95
2021/07/10 11:01:08;;;;;;;17.70;14.20;;;22.30;78.30;;;;;;4979962;28;20400;-90
2021/07/10 11:03:39;;;;;;;17.95;14.13;;;22.40;78.50;;;;;;4979339;28;20053;-95
2021/07/10 11:06:28;;;;;;;19.52;14.25;;;22.50;76.60;;;;;;4982561;28;20051;-91
2021/07/10 11:08:54;;;;;;;15.98;13.30;;;22.50;75.80;;;;;;4968340;28;20073;-92
2021/07/10 11:11:22;;;;;;;18.42;14.23;;;22.60;76.50;;;;;;4978528;28;20050;-93
2021/07/10 11:14:10;;;;;;;17.77;13.48;;;22.60;77.40;;;;;;4979963;28;20047;-95
2021/07/10 11:16:56;;;;;;;17.33;13.15;;;22.70;77.60;;;;;;4961215;28;20062;-93
2021/07/10 11:19:42;;;;;;;16.35;13.45;;;22.80;77.20;;;;;;4960842;28;20047;-92
2021/07/10 11:22:07;;;;;;;17.60;13.52;;;22.90;77.60;;;;;;4959166;28;20478;-91
2021/07/10 11:24:46;;;;;;;17.15;12.52;;;22.90;78.00;;;;;;4973327;28;20050;-91
2021/07/10 11:27:11;;;;;;;15.27;12.50;;;23.00;78.10;;;;;;4977881;28;20053;-88
2021/07/10 11:29:41;;;;;;;14.70;11.95;;;23.00;78.30;;;;;;4977394;28;20047;-88
2021/07/10 11:32:13;;;;;;;16.77;13.20;;;23.10;78.40;;;;;;4978314;28;20051;-92
2021/07/10 11:34:44;;;;;;;14.93;12.35;;;23.10;78.40;;;;;;4978188;28;20066;-89
2021/07/10 11:37:12;;;;;;;16.27;13.02;;;23.20;78.50;;;;;;4977885;28;20141;-89
2021/07/10 11:39:40;;;;;;;15.55;12.38;;;23.30;78.60;;;;;;4979004;28;20398;-93
2021/07/10 11:42:18;;;;;;;15.27;12.23;;;23.30;78.40;;;;;;4979636;28;20051;-93
2021/07/10 11:44:46;;;;;;;15.18;12.18;;;23.40;78.30;;;;;;4978679;28;20058;-93
2021/07/10 11:47:12;;;;;;;16.35;12.23;;;23.40;78.10;;;;;;4979023;28;20118;-93
2021/07/10 11:49:41;;;;;;;15.38;11.95;;;23.40;78.20;;;;;;4979377;28;20050;-92
2021/07/10 11:52:10;;;;;;;14.18;11.15;;;23.50;78.20;;;;;;4979874;28;20062;-92
2021/07/10 11:54:39;;;;;;;13.85;11.23;;;23.50;78.10;;;;;;4980740;28;20078;-92
2021/07/10 11:57:09;;;;;;;13.88;10.93;;;23.60;78.10;;;;;;4980705;28;20055;-93
2021/07/10 11:59:36;;;;;;;15.88;11.88;;;23.60;78.00;;;;;;4981433;28;20054;-93
2021/07/10 12:02:18;;;;;;;13.35;11.20;;;23.60;77.90;;;;;;4981558;28;20086;-92
2021/07/10 12:05:05;;;;;;;14.70;11.18;;;23.70;77.70;;;;;;4983297;28;20077;-92
2021/07/10 12:07:36;;;;;;;14.55;10.90;;;23.70;77.70;;;;;;4981543;28;20238;-92
2021/07/10 12:10:06;;;;;;;13.13;10.45;;;23.70;77.60;;;;;;4981402;28;20051;-92
2021/07/10 12:12:42;;;;;;;15.60;10.40;;;23.80;77.70;;;;;;4979596;28;20503;-92
2021/07/10 12:15:20;;;;;;;14.75;11.50;;;23.90;77.10;;;;;;4978221;28;20054;-92
2021/07/10 12:17:50;;;;;;;12.90;10.23;;;23.90;76.40;;;;;;4978387;28;20541;-92
2021/07/10 12:20:20;;;;;;;13.65;10.48;;;23.90;76.70;;;;;;4977461;28;20046;-92
2021/07/10 12:22:48;;;;;;;13.13;10.43;;;24.00;76.40;;;;;;4977119;28;20051;-92
2021/07/10 12:25:14;;;;;;;14.18;10.15;;;24.00;76.40;;;;;;4977257;28;20051;-85
2021/07/10 12:27:39;;;;;;;13.80;10.13;;;24.10;76.40;;;;;;4977613;28;20054;-92
2021/07/10 12:30:05;;;;;;;12.32;9.65;;;24.10;76.30;;;;;;4977771;28;20051;-92
2021/07/10 12:32:33;;;;;;;12.07;10.15;;;24.20;76.30;;;;;;4979018;28;20050;-94
2021/07/10 12:34:59;;;;;;;13.00;9.60;;;24.30;76.40;;;;;;4978319;28;20054;-95